Time;durP1;ratioP1;P1;durP2;ratioP2;P2;SDS_P1;SDS_P2;PMS_P1;PMS_P2;Temp;Humidity;BMP_temperature;BMP_pressure;BME280_temperature;BME280_humidity;BME280_pressure;Samples;Min_cycle;Max_cycle;Signal;HPM_P1;HPM_P2
2023/01/22 00:01:17;;;;;;;10.02;8.80;;;;;;;;;;4988586;28;20049;-81
2023/01/22 00:03:44;;;;;;;8.30;6.70;;;;;;;;;;5002715;28;20041;-80
2023/01/22 00:06:11;;;;;;;11.70;8.07;;;;;;;;;;5026414;28;20045;-81
2023/01/22 00:08:38;;;;;;;8.73;6.55;;;;;;;;;;5000031;28;20045;-81
2023/01/22 00:11:06;;;;;;;10.48;7.13;;;;;;;;;;5014416;28;20060;-81
2023/01/22 00:13:35;;;;;;;14.50;8.38;;;;;;;;;;5011688;28;20057;-81
2023/01/22 00:16:04;;;;;;;11.75;6.93;;;;;;;;;;5012690;28;20056;-80
2023/01/22 00:18:32;;;;;;;9.57;8.00;;;;;;;;;;4993462;28;20061;-81
2023/01/22 00:20:59;;;;;;;10.75;6.70;;;;;;;;;;5000224;28;20045;-80
2023/01/22 00:23:26;;;;;;;7.63;6.32;;;;;;;;;;5020530;28;20630;-80
2023/01/22 00:26:02;;;;;;;8.82;6.75;;;;;;;;;;5021942;28;20053;-81
2023/01/22 00:28:30;;;;;;;8.60;7.25;;;;;;;;;;5021334;28;20515;-81
2023/01/22 00:30:58;;;;;;;8.27;7.03;;;;;;;;;;5011416;28;20522;-80
2023/01/22 00:33:27;;;;;;;9.07;7.18;;;;;;;;;;5005280;28;20048;-80
2023/01/22 00:36:03;;;;;;;7.78;6.47;;;;;;;;;;5005242;28;20056;-81
2023/01/22 00:38:31;;;;;;;11.38;7.97;;;;;;;;;;4991331;28;20053;-80
2023/01/22 00:41:00;;;;;;;8.25;6.38;;;;;;;;;;4995188;28;20038;-80
2023/01/22 00:43:27;;;;;;;9.23;6.57;;;;;;;;;;5014351;28;20056;-81
2023/01/22 00:45:57;;;;;;;7.25;6.35;;;;;;;;;;5012969;28;20057;-81
2023/01/22 00:48:28;;;;;;;8.48;6.53;;;;;;;;;;5008823;28;21863;-80
2023/01/22 00:50:55;;;;;;;10.43;6.60;;;;;;;;;;5022995;28;20060;-80
2023/01/22 00:53:23;;;;;;;10.38;7.25;;;;;;;;;;5005181;28;20061;-81
2023/01/22 00:55:51;;;;;;;8.63;6.47;;;;;;;;;;5007441;28;20053;-81
2023/01/22 00:58:18;;;;;;;8.90;7.30;;;;;;;;;;5026352;28;20049;-81
2023/01/22 01:00:46;;;;;;;7.53;6.60;;;;;;;;;;5004610;28;20045;-80
2023/01/22 01:03:29;;;;;;;9.30;6.68;;;;;;;;;;5016664;28;20498;-81
2023/01/22 01:05:59;;;;;;;7.25;6.20;;;;;;;;;;5006008;28;20041;-81
2023/01/22 01:08:32;;;;;;;5.53;5.03;;;;;;;;;;5010096;28;20407;-80
2023/01/22 01:11:03;;;;;;;9.68;7.20;;;;;;;;;;5008283;28;20420;-80
2023/01/22 01:13:32;;;;;;;10.80;6.47;;;;;;;;;;4989782;28;20058;-81
2023/01/22 01:16:01;;;;;;;9.55;7.60;;;;;;;;;;4993307;28;20053;-81
2023/01/22 01:18:29;;;;;;;7.53;6.30;;;;;;;;;;5011017;28;20048;-81
2023/01/22 01:21:00;;;;;;;8.18;6.75;;;;;;;;;;5022190;28;20041;-80
2023/01/22 01:23:28;;;;;;;8.38;5.93;;;;;;;;;;5003644;28;20675;-80
2023/01/22 01:25:55;;;;;;;8.23;5.53;;;;;;;;;;5001308;28;20057;-81
2023/01/22 01:28:23;;;;;;;8.45;6.10;;;;;;;;;;5008782;28;20053;-81
2023/01/22 01:30:53;;;;;;;9.82;7.50;;;;;;;;;;4984547;28;20054;-80
2023/01/22 01:33:21;;;;;;;7.15;6.25;;;;;;;;;;5020360;28;20045;-80
2023/01/22 01:36:00;;;;;;;6.90;5.93;;;;;;;;;;5005798;28;20045;-80
2023/01/22 01:38:30;;;;;;;10.80;8.35;;;;;;;;;;5007570;28;20060;-80
2023/01/22 01:40:57;;;;;;;6.47;4.95;;;;;;;;;;4993720;28;20045;-81
2023/01/22 01:43:25;;;;;;;9.55;7.38;;;;;;;;;;5020087;28;20052;-81
2023/01/22 01:45:55;;;;;;;7.03;6.00;;;;;;;;;;5012003;28;20060;-81
2023/01/22 01:48:26;;;;;;;10.55;6.90;;;;;;;;;;5007231;28;20053;-80
2023/01/22 01:51:00;;;;;;;10.93;6.80;;;;;;;;;;4993445;28;20060;-80
2023/01/22 01:53:29;;;;;;;10.13;6.65;;;;;;;;;;5011556;28;20051;-80
2023/01/22 01:55:58;;;;;;;10.00;6.07;;;;;;;;;;5012326;28;20053;-80
2023/01/22 01:58:32;;;;;;;8.93;7.63;;;;;;;;;;4995074;28;20060;-80
2023/01/22 02:01:02;;;;;;;8.80;6.72;;;;;;;;;;5022059;28;20510;-80
2023/01/22 02:03:31;;;;;;;10.38;6.60;;;;;;;;;;5001486;28;20045;-81
2023/01/22 02:06:02;;;;;;;9.55;7.25;;;;;;;;;;5004271;28;20052;-80
2023/01/22 02:08:29;;;;;;;9.95;7.15;;;;;;;;;;4997328;28;20605;-80
2023/01/22 02:11:00;;;;;;;10.55;7.20;;;;;;;;;;5002403;28;20049;-80
2023/01/22 02:13:31;;;;;;;9.55;7.07;;;;;;;;;;5004717;28;20057;-80
2023/01/22 02:15:59;;;;;;;8.65;6.30;;;;;;;;;;5003060;28;20060;-80
2023/01/22 02:18:27;;;;;;;11.32;7.97;;;;;;;;;;5001341;28;20054;-81
2023/01/22 02:20:57;;;;;;;14.02;7.47;;;;;;;;;;4992538;28;20057;-80
2023/01/22 02:23:28;;;;;;;10.45;7.43;;;;;;;;;;5004563;28;20052;-80
2023/01/22 02:25:57;;;;;;;12.75;8.32;;;;;;;;;;5011421;28;20061;-80
2023/01/22 02:28:25;;;;;;;9.05;8.13;;;;;;;;;;5002914;28;20048;-80
2023/01/22 02:30:55;;;;;;;9.02;6.57;;;;;;;;;;5013742;28;20061;-80
2023/01/22 02:33:22;;;;;;;8.75;7.15;;;;;;;;;;5000583;28;20045;-80
2023/01/22 02:35:49;;;;;;;8.80;6.55;;;;;;;;;;4993383;28;20076;-80
2023/01/22 02:38:18;;;;;;;10.00;6.43;;;;;;;;;;5001760;28;20526;-80
2023/01/22 02:40:48;;;;;;;8.88;7.88;;;;;;;;;;4998467;28;20045;-80
2023/01/22 02:43:18;;;;;;;10.40;7.60;;;;;;;;;;5001444;28;20045;-80
2023/01/22 02:45:45;;;;;;;10.63;7.95;;;;;;;;;;5015155;28;20305;-80
2023/01/22 02:48:13;;;;;;;9.38;7.10;;;;;;;;;;5010349;28;20403;-80
2023/01/22 02:50:40;;;;;;;10.13;7.90;;;;;;;;;;5001277;28;20057;-80
2023/01/22 02:53:07;;;;;;;11.27;6.75;;;;;;;;;;5002756;28;20053;-80
2023/01/22 02:55:38;;;;;;;10.30;7.25;;;;;;;;;;4986104;28;20518;-80
2023/01/22 02:58:05;;;;;;;7.75;6.53;;;;;;;;;;4995328;28;20504;-81
2023/01/22 03:00:35;;;;;;;11.70;6.30;;;;;;;;;;5004317;28;20046;-80
2023/01/22 03:03:14;;;;;;;8.70;6.05;;;;;;;;;;4999324;28;20522;-80
2023/01/22 03:05:49;;;;;;;10.13;8.23;;;;;;;;;;5006635;28;20421;-80
2023/01/22 03:08:19;;;;;;;9.27;6.90;;;;;;;;;;5019520;28;20065;-80
2023/01/22 03:10:50;;;;;;;11.25;7.45;;;;;;;;;;5001649;28;20046;-80
2023/01/22 03:21:42;;;;;;;8.32;7.15;;;;;;;;;;5020380;28;20037;-80
2023/01/22 03:24:10;;;;;;;9.23;6.80;;;;;;;;;;4994973;28;20041;-80
2023/01/22 03:26:39;;;;;;;8.07;6.13;;;;;;;;;;5006667;28;20050;-81
2023/01/22 03:29:11;;;;;;;9.15;7.43;;;;;;;;;;5003036;28;20041;-81
2023/01/22 03:31:40;;;;;;;9.48;6.18;;;;;;;;;;5013083;28;20046;-80
2023/01/22 03:34:08;;;;;;;10.60;6.57;;;;;;;;;;4999234;28;20054;-81
2023/01/22 03:36:37;;;;;;;7.57;5.45;;;;;;;;;;5004792;28;20041;-80
2023/01/22 03:39:06;;;;;;;8.20;7.35;;;;;;;;;;5003385;28;21554;-80
2023/01/22 03:41:33;;;;;;;5.68;5.05;;;;;;;;;;5002116;28;20045;-80
2023/01/22 03:44:03;;;;;;;8.50;6.03;;;;;;;;;;5003259;28;20054;-81
2023/01/22 03:46:38;;;;;;;8.68;7.13;;;;;;;;;;5021625;22;20046;-85
2023/01/22 03:49:05;;;;;;;8.52;5.78;;;;;;;;;;5012026;28;20053;-85
2023/01/22 03:51:35;;;;;;;7.97;6.75;;;;;;;;;;4997975;28;20057;-85
2023/01/22 03:54:05;;;;;;;7.78;5.93;;;;;;;;;;4998057;28;20053;-85
2023/01/22 03:56:33;;;;;;;8.20;5.63;;;;;;;;;;5169599;22;20037;-86
2023/01/22 03:59:09;;;;;;;8.32;6.85;;;;;;;;;;5014027;28;20053;-86
2023/01/22 04:01:39;;;;;;;7.55;6.72;;;;;;;;;;5000703;28;20057;-87
2023/01/22 04:04:06;;;;;;;6.72;4.95;;;;;;;;;;4997918;28;20045;-86
2023/01/22 04:06:34;;;;;;;7.90;6.25;;;;;;;;;;5010419;28;20058;-86
2023/01/22 04:09:01;;;;;;;7.10;4.95;;;;;;;;;;5025397;28;20046;-86
2023/01/22 04:11:33;;;;;;;8.55;7.60;;;;;;;;;;4998460;28;20193;-87
2023/01/22 04:14:00;;;;;;;8.65;6.80;;;;;;;;;;4998969;28;20045;-88
2023/01/22 04:16:32;;;;;;;11.65;7.68;;;;;;;;;;5015899;28;20049;-87
2023/01/22 04:19:15;;;;;;;6.93;5.32;;;;;;;;;;4996554;28;20052;-86
2023/01/22 04:22:04;;;;;;;8.25;5.90;;;;;;;;;;5030233;28;20053;-86
2023/01/22 04:24:33;;;;;;;7.50;6.68;;;;;;;;;;4998731;28;20417;-86
2023/01/22 04:27:01;;;;;;;9.27;6.93;;;;;;;;;;5010857;28;20044;-88
2023/01/22 04:29:32;;;;;;;8.23;5.75;;;;;;;;;;4998914;28;20057;-88
2023/01/22 04:32:01;;;;;;;5.88;5.25;;;;;;;;;;4997381;28;20060;-86
2023/01/22 04:34:58;;;;;;;9.48;7.25;;;;;;;;;;5003170;28;20056;-87
2023/01/22 04:37:35;;;;;;;8.27;5.30;;;;;;;;;;4982825;28;20058;-86
2023/01/22 04:40:04;;;;;;;8.48;5.72;;;;;;;;;;4990838;28;20042;-88
2023/01/22 04:42:35;;;;;;;6.30;5.07;;;;;;;;;;4995045;28;20057;-90
2023/01/22 04:45:03;;;;;;;7.30;5.45;;;;;;;;;;4993939;28;20046;-87
2023/01/22 04:47:35;;;;;;;7.60;6.22;;;;;;;;;;4992336;28;20045;-87
2023/01/22 04:50:08;;;;;;;7.95;6.13;;;;;;;;;;5027386;28;20053;-87
2023/01/22 04:52:38;;;;;;;7.88;5.05;;;;;;;;;;4999878;28;20418;-89
2023/01/22 04:55:09;;;;;;;8.38;5.97;;;;;;;;;;4995405;28;20046;-88
2023/01/22 04:57:46;;;;;;;7.75;5.25;;;;;;;;;;5005473;28;20053;-87
2023/01/22 05:00:15;;;;;;;5.63;5.07;;;;;;;;;;4995181;28;20045;-87
2023/01/22 05:02:46;;;;;;;7.00;6.32;;;;;;;;;;4998197;28;20061;-88
2023/01/22 05:05:14;;;;;;;5.72;4.53;;;;;;;;;;5012850;28;20049;-87
2023/01/22 05:07:41;;;;;;;7.05;5.35;;;;;;;;;;5014600;28;20046;-88
2023/01/22 05:10:12;;;;;;;6.18;5.38;;;;;;;;;;5010748;28;20049;-89
2023/01/22 05:12:43;;;;;;;6.10;5.13;;;;;;;;;;4994744;28;20046;-87
2023/01/22 05:15:11;;;;;;;8.27;5.72;;;;;;;;;;4981387;28;20045;-89
2023/01/22 05:17:38;;;;;;;6.00;5.45;;;;;;;;;;4991162;28;20399;-88
2023/01/22 05:20:09;;;;;;;7.20;4.05;;;;;;;;;;5010410;28;20042;-87
2023/01/22 05:22:48;;;;;;;5.10;4.53;;;;;;;;;;4995698;28;20057;-87
2023/01/22 05:25:16;;;;;;;6.82;5.40;;;;;;;;;;4991639;28;20045;-87
2023/01/22 05:27:45;;;;;;;3.90;3.38;;;;;;;;;;4995306;28;20139;-87
2023/01/22 05:30:18;;;;;;;5.65;4.57;;;;;;;;;;5024185;28;20049;-88
2023/01/22 05:32:55;;;;;;;7.35;5.38;;;;;;;;;;4996562;28;20053;-88
2023/01/22 05:35:24;;;;;;;5.95;4.32;;;;;;;;;;4997387;28;20049;-86
2023/01/22 05:37:52;;;;;;;4.55;3.78;;;;;;;;;;4994250;28;20050;-87
2023/01/22 05:40:24;;;;;;;6.53;4.30;;;;;;;;;;4992637;28;20046;-88
2023/01/22 05:42:56;;;;;;;5.55;3.42;;;;;;;;;;4991402;28;20056;-87
2023/01/22 05:45:26;;;;;;;5.50;4.28;;;;;;;;;;4995280;28;20041;-88
2023/01/22 05:48:17;;;;;;;5.20;4.07;;;;;;;;;;5008249;28;20418;-88
2023/01/22 05:51:05;;;;;;;5.07;4.53;;;;;;;;;;5001500;28;20510;-87
2023/01/22 05:53:35;;;;;;;5.85;4.65;;;;;;;;;;4995720;28;20053;-90
2023/01/22 05:56:04;;;;;;;5.20;4.60;;;;;;;;;;4996306;28;20042;-87
2023/01/22 05:58:35;;;;;;;4.40;3.58;;;;;;;;;;4992633;28;20568;-87
2023/01/22 06:01:03;;;;;;;7.93;3.53;;;;;;;;;;4997859;28;20054;-86
2023/01/22 06:03:38;;;;;;;5.28;3.97;;;;;;;;;;5015085;28;20045;-88
2023/01/22 06:06:15;;;;;;;5.50;4.38;;;;;;;;;;5024632;28;20411;-87
2023/01/22 06:08:46;;;;;;;5.63;3.80;;;;;;;;;;4995184;28;20069;-86
2023/01/22 06:11:15;;;;;;;7.25;4.80;;;;;;;;;;5015934;28;20049;-87
2023/01/22 06:13:48;;;;;;;4.25;3.63;;;;;;;;;;5011329;28;20064;-87
2023/01/22 06:16:22;;;;;;;4.80;4.20;;;;;;;;;;4995091;28;20045;-87
2023/01/22 06:19:12;;;;;;;4.70;4.10;;;;;;;;;;4994028;28;20518;-87
2023/01/22 06:21:53;;;;;;;4.55;4.15;;;;;;;;;;5001011;28;20057;-86
2023/01/22 06:24:27;;;;;;;5.03;4.07;;;;;;;;;;4993218;28;20053;-87
2023/01/22 06:26:55;;;;;;;5.25;3.88;;;;;;;;;;4989734;28;20053;-87
2023/01/22 06:29:29;;;;;;;4.82;4.15;;;;;;;;;;5005365;28;20069;-87
2023/01/22 06:31:57;;;;;;;5.93;4.30;;;;;;;;;;4999157;28;20135;-87
2023/01/22 06:34:25;;;;;;;6.20;4.43;;;;;;;;;;5011995;28;20362;-88
2023/01/22 06:36:53;;;;;;;5.38;3.85;;;;;;;;;;5005617;28;20052;-86
2023/01/22 06:39:21;;;;;;;3.88;3.53;;;;;;;;;;4996006;28;20050;-87
2023/01/22 06:42:01;;;;;;;4.63;4.07;;;;;;;;;;5016652;28;20046;-88
2023/01/22 06:44:32;;;;;;;4.00;3.08;;;;;;;;;;4990451;28;20060;-87
2023/01/22 06:47:00;;;;;;;5.40;3.63;;;;;;;;;;5008561;28;20046;-87
2023/01/22 06:49:30;;;;;;;4.28;3.45;;;;;;;;;;5014130;28;20049;-87
2023/01/22 06:51:59;;;;;;;5.10;3.42;;;;;;;;;;4995455;28;20053;-87
2023/01/22 06:54:26;;;;;;;3.95;2.90;;;;;;;;;;5009064;28;20053;-87
2023/01/22 06:56:54;;;;;;;6.00;3.78;;;;;;;;;;5013823;28;20042;-87
2023/01/22 06:59:24;;;;;;;5.35;4.45;;;;;;;;;;5010189;28;20049;-87
2023/01/22 07:01:52;;;;;;;6.15;3.28;;;;;;;;;;4996417;28;20507;-87
2023/01/22 07:04:19;;;;;;;4.78;4.20;;;;;;;;;;5007629;28;20045;-87
2023/01/22 07:06:47;;;;;;;3.70;3.30;;;;;;;;;;4994187;28;20429;-87
2023/01/22 07:09:15;;;;;;;6.20;3.45;;;;;;;;;;5014330;28;20049;-87
2023/01/22 07:14:40;;;;;;;5.65;3.95;;;;;;;;;;4993904;28;20053;-89
2023/01/22 07:17:08;;;;;;;3.45;3.15;;;;;;;;;;5010276;28;20045;-89
2023/01/22 07:19:38;;;;;;;4.45;3.47;;;;;;;;;;5012183;28;20057;-89
2023/01/22 07:22:05;;;;;;;3.78;3.35;;;;;;;;;;4994356;28;20049;-91
2023/01/22 07:24:34;;;;;;;4.80;2.97;;;;;;;;;;4996848;28;20529;-89
2023/01/22 07:27:03;;;;;;;5.63;3.40;;;;;;;;;;4997543;28;20046;-89
2023/01/22 07:29:31;;;;;;;4.57;3.03;;;;;;;;;;4998073;28;20050;-90
2023/01/22 07:31:58;;;;;;;4.70;3.30;;;;;;;;;;5000784;28;20053;-89
2023/01/22 07:34:26;;;;;;;4.60;3.70;;;;;;;;;;5012642;28;20048;-89
2023/01/22 07:36:53;;;;;;;4.07;3.53;;;;;;;;;;5006166;28;20053;-89
2023/01/22 07:39:24;;;;;;;3.67;3.38;;;;;;;;;;4992257;28;20045;-90
2023/01/22 07:41:52;;;;;;;6.15;4.40;;;;;;;;;;5027094;28;20037;-89
2023/01/22 07:44:21;;;;;;;5.65;3.47;;;;;;;;;;4993565;28;20042;-92
2023/01/22 07:46:54;;;;;;;5.03;3.08;;;;;;;;;;4986316;28;20046;-89
2023/01/22 07:49:21;;;;;;;4.57;3.17;;;;;;;;;;4992455;28;20045;-90
2023/01/22 07:51:49;;;;;;;4.28;3.45;;;;;;;;;;5011278;28;20418;-89
2023/01/22 07:54:19;;;;;;;4.03;3.60;;;;;;;;;;4995384;28;20399;-91
2023/01/22 07:56:46;;;;;;;3.88;2.58;;;;;;;;;;5005366;28;20048;-89
2023/01/22 07:59:15;;;;;;;4.88;4.35;;;;;;;;;;4992139;28;20052;-89
2023/01/22 08:01:43;;;;;;;3.30;2.95;;;;;;;;;;4996123;28;20046;-89
2023/01/22 08:04:10;;;;;;;4.28;3.20;;;;;;;;;;5004694;28;20130;-89
2023/01/22 08:06:38;;;;;;;3.58;3.22;;;;;;;;;;4998731;28;20542;-89
2023/01/22 08:09:09;;;;;;;5.13;4.20;;;;;;;;;;5007671;28;20042;-89
2023/01/22 08:11:37;;;;;;;4.30;3.10;;;;;;;;;;5027009;28;20058;-88
2023/01/22 08:14:06;;;;;;;5.28;3.80;;;;;;;;;;4988877;28;20045;-91
2023/01/22 08:16:36;;;;;;;3.85;3.35;;;;;;;;;;5008001;28;20530;-89
2023/01/22 08:19:04;;;;;;;4.82;4.32;;;;;;;;;;4988967;28;20057;-89
2023/01/22 08:21:32;;;;;;;3.92;3.08;;;;;;;;;;4992111;28;20054;-89
2023/01/22 08:23:59;;;;;;;3.75;2.97;;;;;;;;;;4987391;28;20046;-90
2023/01/22 08:26:29;;;;;;;4.95;4.13;;;;;;;;;;4988251;28;20121;-90
2023/01/22 08:28:57;;;;;;;4.78;4.28;;;;;;;;;;4992053;28;20053;-88
2023/01/22 08:31:24;;;;;;;3.92;3.42;;;;;;;;;;5000085;28;20076;-90
2023/01/22 08:33:53;;;;;;;4.82;4.13;;;;;;;;;;4997203;28;20046;-89
2023/01/22 08:36:21;;;;;;;3.67;2.88;;;;;;;;;;4993279;28;20065;-92
2023/01/22 08:38:49;;;;;;;4.85;3.78;;;;;;;;;;5009828;28;20449;-89
2023/01/22 08:41:18;;;;;;;4.30;3.90;;;;;;;;;;5015034;28;20049;-90
2023/01/22 08:43:49;;;;;;;6.57;4.45;;;;;;;;;;4990287;28;20049;-90
2023/01/22 08:46:20;;;;;;;5.93;4.65;;;;;;;;;;4999998;28;20049;-90
2023/01/22 08:48:49;;;;;;;4.72;3.42;;;;;;;;;;4998179;28;20415;-90
2023/01/22 08:51:17;;;;;;;4.80;3.63;;;;;;;;;;5010784;28;20395;-90
2023/01/22 08:53:51;;;;;;;3.72;3.35;;;;;;;;;;5028203;28;20046;-91
2023/01/22 08:56:18;;;;;;;6.95;4.18;;;;;;;;;;5016141;28;20414;-90
2023/01/22 08:58:48;;;;;;;4.97;3.58;;;;;;;;;;4986731;28;20412;-88
2023/01/22 09:01:17;;;;;;;6.55;4.80;;;;;;;;;;5031112;28;20052;-89
2023/01/22 09:03:50;;;;;;;4.95;4.20;;;;;;;;;;4997815;28;20056;-89
2023/01/22 09:06:23;;;;;;;4.70;4.18;;;;;;;;;;5009978;28;20053;-90
2023/01/22 09:08:51;;;;;;;5.07;4.32;;;;;;;;;;5010890;28;20077;-89
2023/01/22 09:11:18;;;;;;;6.13;4.13;;;;;;;;;;4995446;28;20056;-91
2023/01/22 09:13:54;;;;;;;5.60;4.15;;;;;;;;;;5016089;28;20045;-92
2023/01/22 09:16:22;;;;;;;5.00;4.53;;;;;;;;;;4995279;28;20058;-91
2023/01/22 09:18:50;;;;;;;7.18;4.80;;;;;;;;;;5014766;28;20057;-92
2023/01/22 09:21:21;;;;;;;6.85;5.10;;;;;;;;;;5014894;28;20061;-90
2023/01/22 09:23:52;;;;;;;5.70;4.22;;;;;;;;;;5011749;28;20046;-90
2023/01/22 09:26:20;;;;;;;5.82;5.25;;;;;;;;;;5014288;28;20054;-90
2023/01/22 09:28:49;;;;;;;5.13;4.63;;;;;;;;;;5030051;28;20049;-91
2023/01/22 09:31:17;;;;;;;5.20;4.68;;;;;;;;;;4998859;28;20072;-89
2023/01/22 09:33:50;;;;;;;6.25;4.60;;;;;;;;;;5014476;28;20041;-91
2023/01/22 09:36:22;;;;;;;6.10;5.30;;;;;;;;;;5001701;28;20049;-89
2023/01/22 09:38:51;;;;;;;7.10;5.32;;;;;;;;;;5028706;28;20044;-89
2023/01/22 09:41:23;;;;;;;5.60;4.75;;;;;;;;;;5014169;28;20050;-90
2023/01/22 09:43:53;;;;;;;7.90;5.80;;;;;;;;;;4998180;28;20391;-91
2023/01/22 09:46:33;;;;;;;7.53;5.13;;;;;;;;;;5019876;23;20045;-86
2023/01/22 09:49:07;;;;;;;7.15;5.82;;;;;;;;;;5008521;28;20046;-82
2023/01/22 09:51:35;;;;;;;;;;;;;;;;;;5025882;28;20053;-83
2023/01/22 09:54:06;;;;;;;31.02;18.52;;;;;;;;;;4995653;28;20132;-83
2023/01/22 09:56:40;;;;;;;35.58;17.33;;;;;;;;;;4997264;28;20419;-83
2023/01/22 09:59:14;;;;;;;18.67;12.68;;;;;;;;;;5009486;28;20057;-83
2023/01/22 10:01:46;;;;;;;10.55;7.05;;;;;;;;;;5002279;28;20125;-83
2023/01/22 10:04:22;;;;;;;10.60;6.90;;;;;;;;;;4990916;28;20418;-83
2023/01/22 10:06:51;;;;;;;5.15;4.18;;;;;;;;;;5008859;28;20046;-83
2023/01/22 10:09:23;;;;;;;;;;;;;;;;;;4997662;28;20041;-83
2023/01/22 10:11:53;;;;;;;3.78;3.15;;;;;;;;;;4994244;28;19922;-83
2023/01/22 10:14:22;;;;;;;5.55;3.20;;;;;;;;;;4994314;28;20045;-83
2023/01/22 10:16:50;;;;;;;3.35;1.80;;;;;;;;;;4999531;28;20061;-83
2023/01/22 10:19:20;;;;;;;3.50;3.00;;;;;;;;;;4984093;28;20042;-83
2023/01/22 10:21:48;;;;;;;3.42;2.53;;;;;;;;;;5002038;28;20129;-83
2023/01/22 10:24:17;;;;;;;2.75;2.20;;;;;;;;;;5004081;28;20050;-83
2023/01/22 10:26:46;;;;;;;2.95;2.53;;;;;;;;;;5000307;28;20125;-83
2023/01/22 10:29:15;;;;;;;3.22;2.35;;;;;;;;;;5007146;28;20053;-83
2023/01/22 10:31:47;;;;;;;2.85;2.05;;;;;;;;;;4980145;28;20057;-84
2023/01/22 10:34:16;;;;;;;2.42;1.70;;;;;;;;;;5008242;28;20048;-83
2023/01/22 10:36:49;;;;;;;3.20;2.33;;;;;;;;;;5021388;28;20046;-84
2023/01/22 10:39:20;;;;;;;2.72;2.50;;;;;;;;;;4970351;28;20050;-84
2023/01/22 10:41:48;;;;;;;2.92;2.00;;;;;;;;;;4992105;28;20053;-83
2023/01/22 10:44:24;;;;;;;2.28;2.00;;;;;;;;;;5002038;28;20042;-83
2023/01/22 10:46:52;;;;;;;2.88;1.67;;;;;;;;;;5013957;28;20076;-83
2023/01/22 10:49:23;;;;;;;2.67;1.95;;;;;;;;;;5000611;28;20038;-83
2023/01/22 10:51:53;;;;;;;3.45;2.60;;;;;;;;;;4990255;28;20049;-84
2023/01/22 10:54:25;;;;;;;3.22;2.47;;;;;;;;;;5010966;28;20045;-84
2023/01/22 10:57:03;;;;;;;;;;;;;;;;;;5003789;28;20041;-84
2023/01/22 10:59:33;;;;;;;2.55;2.13;;;;;;;;;;5002245;28;19937;-84
2023/01/22 11:02:12;;;;;;;3.28;2.60;;;;;;;;;;5005064;28;20435;-85
2023/01/22 11:04:39;;;;;;;3.80;2.20;;;;;;;;;;4984216;28;20149;-84
2023/01/22 11:07:14;;;;;;;2.83;2.10;;;;;;;;;;4989432;28;20057;-84
2023/01/22 11:09:46;;;;;;;2.85;2.65;;;;;;;;;;5001292;28;20061;-84
2023/01/22 11:12:22;;;;;;;2.45;1.80;;;;;;;;;;5004322;28;20415;-85
2023/01/22 11:14:56;;;;;;;1.55;1.45;;;;;;;;;;5006390;28;20073;-84
2023/01/22 11:17:29;;;;;;;3.15;2.38;;;;;;;;;;5009350;28;20076;-84
2023/01/22 11:20:02;;;;;;;2.13;1.73;;;;;;;;;;5002638;28;20050;-84
2023/01/22 11:22:33;;;;;;;2.95;2.70;;;;;;;;;;5007638;28;20046;-85
2023/01/22 11:25:03;;;;;;;3.20;2.53;;;;;;;;;;5015222;28;20053;-85
2023/01/22 11:27:52;;;;;;;2.55;2.20;;;;;;;;;;4992004;28;20061;-85
2023/01/22 11:30:34;;;;;;;2.75;2.40;;;;;;;;;;5002130;28;20056;-84
2023/01/22 11:33:05;;;;;;;2.90;2.60;;;;;;;;;;5005988;28;20054;-84
2023/01/22 11:35:36;;;;;;;3.30;2.30;;;;;;;;;;4995067;28;20054;-84
2023/01/22 11:38:17;;;;;;;2.85;2.25;;;;;;;;;;5003050;28;20061;-84
2023/01/22 11:41:10;;;;;;;3.03;2.03;;;;;;;;;;5009014;28;20058;-84
2023/01/22 11:43:54;;;;;;;4.25;2.35;;;;;;;;;;5005377;28;20046;-84
2023/01/22 11:46:36;;;;;;;2.13;1.90;;;;;;;;;;5015050;28;20510;-84
2023/01/22 11:49:18;;;;;;;3.40;2.92;;;;;;;;;;4984954;28;20053;-84
2023/01/22 11:51:58;;;;;;;2.80;1.98;;;;;;;;;;5008589;28;20385;-84
2023/01/22 11:54:37;;;;;;;2.50;2.00;;;;;;;;;;5005926;28;20046;-84
2023/01/22 11:57:16;;;;;;;2.90;2.45;;;;;;;;;;4988681;28;20049;-84
2023/01/22 12:00:03;;;;;;;3.15;2.13;;;;;;;;;;5001303;28;20050;-85
2023/01/22 12:02:52;;;;;;;2.78;2.30;;;;;;;;;;5012425;28;20062;-85
2023/01/22 12:05:31;;;;;;;2.78;2.50;;;;;;;;;;5006810;28;20050;-84
2023/01/22 12:08:11;;;;;;;3.90;2.28;;;;;;;;;;4987550;28;20508;-86
2023/01/22 12:11:06;;;;;;;2.60;2.40;;;;;;;;;;5007994;28;20393;-84
2023/01/22 12:13:52;;;;;;;3.88;2.67;;;;;;;;;;5006114;28;20118;-85
2023/01/22 12:16:25;;;;;;;3.35;2.20;;;;;;;;;;5010339;28;20045;-85
2023/01/22 12:19:34;;;;;;;2.75;2.28;;;;;;;;;;5011543;28;20045;-85
2023/01/22 12:22:09;;;;;;;2.70;2.50;;;;;;;;;;4969912;28;20049;-85
2023/01/22 12:24:41;;;;;;;3.65;2.53;;;;;;;;;;5010416;28;20515;-85
2023/01/22 12:27:11;;;;;;;3.40;3.10;;;;;;;;;;5011213;28;20046;-85
2023/01/22 12:29:47;;;;;;;3.35;2.70;;;;;;;;;;5009236;28;20057;-85
2023/01/22 12:32:18;;;;;;;3.20;2.45;;;;;;;;;;4977161;28;20060;-85
2023/01/22 12:34:47;;;;;;;2.83;2.33;;;;;;;;;;5010363;28;20050;-85
2023/01/22 12:37:18;;;;;;;2.83;2.30;;;;;;;;;;5010977;28;20054;-85
2023/01/22 12:39:56;;;;;;;3.72;2.35;;;;;;;;;;4993946;28;20057;-85
2023/01/22 12:42:31;;;;;;;2.92;2.22;;;;;;;;;;5012763;28;20041;-85
2023/01/22 12:45:19;;;;;;;2.70;1.95;;;;;;;;;;5007575;28;20053;-85
2023/01/22 12:47:51;;;;;;;2.65;2.42;;;;;;;;;;4987983;28;20057;-85
2023/01/22 12:50:21;;;;;;;;;;;;;;;;;;5009670;28;20499;-85
2023/01/22 12:52:59;;;;;;;2.35;2.15;;;;;;;;;;5009552;28;19921;-85
2023/01/22 12:55:36;;;;;;;2.78;2.15;;;;;;;;;;5009296;28;20057;-85
2023/01/22 12:58:18;;;;;;;3.30;1.83;;;;;;;;;;5012258;28;20053;-84
2023/01/22 13:00:47;;;;;;;2.38;2.03;;;;;;;;;;5011037;28;20049;-84
2023/01/22 13:03:23;;;;;;;2.35;1.70;;;;;;;;;;5011074;28;20053;-84
2023/01/22 13:05:50;;;;;;;3.85;2.22;;;;;;;;;;4992461;28;20054;-84
2023/01/22 13:08:25;;;;;;;2.50;2.10;;;;;;;;;;5009117;28;20037;-85
2023/01/22 13:10:59;;;;;;;2.22;1.52;;;;;;;;;;5009560;28;20042;-84
2023/01/22 13:13:32;;;;;;;2.05;1.70;;;;;;;;;;5008005;28;20053;-85
2023/01/22 13:16:04;;;;;;;2.78;2.30;;;;;;;;;;5009173;28;20061;-84
2023/01/22 13:18:35;;;;;;;2.78;2.08;;;;;;;;;;4976891;28;20050;-84
2023/01/22 13:21:05;;;;;;;2.10;1.70;;;;;;;;;;4990888;28;20428;-84
2023/01/22 13:23:34;;;;;;;3.88;2.10;;;;;;;;;;4973871;28;20049;-85
2023/01/22 13:26:02;;;;;;;2.33;2.13;;;;;;;;;;5008805;28;20046;-84
2023/01/22 13:28:32;;;;;;;3.10;2.15;;;;;;;;;;5004905;28;20053;-84
2023/01/22 13:31:05;;;;;;;2.97;1.83;;;;;;;;;;5002830;28;20053;-84
2023/01/22 13:33:32;;;;;;;2.67;2.20;;;;;;;;;;5012564;28;20058;-84
2023/01/22 13:36:09;;;;;;;3.85;2.35;;;;;;;;;;4993424;28;20060;-84
2023/01/22 13:38:37;;;;;;;2.10;1.85;;;;;;;;;;5000233;28;20046;-84
2023/01/22 13:41:08;;;;;;;2.60;2.17;;;;;;;;;;4976471;28;20046;-84
2023/01/22 13:43:37;;;;;;;3.33;2.40;;;;;;;;;;5016557;28;20045;-85
2023/01/22 13:46:13;;;;;;;3.33;2.30;;;;;;;;;;5024406;28;20050;-85
2023/01/22 13:48:40;;;;;;;2.15;1.90;;;;;;;;;;5000051;28;20054;-85
2023/01/22 13:51:17;;;;;;;4.70;2.42;;;;;;;;;;4999118;28;20042;-85
2023/01/22 13:53:47;;;;;;;;;;;;;;;;;;5007141;28;20058;-85
2023/01/22 13:56:15;;;;;;;2.92;2.72;;;;;;;;;;5011968;28;19943;-84
2023/01/22 13:58:43;;;;;;;3.30;2.15;;;;;;;;;;4985372;28;20444;-85
2023/01/22 14:01:13;;;;;;;2.15;1.95;;;;;;;;;;5004738;28;20041;-84
2023/01/22 14:03:43;;;;;;;2.63;2.08;;;;;;;;;;5006717;28;20381;-84
2023/01/22 14:06:12;;;;;;;2.88;2.22;;;;;;;;;;4996539;28;20038;-84
2023/01/22 14:08:49;;;;;;;2.33;1.73;;;;;;;;;;5005153;28;20530;-85
2023/01/22 14:11:17;;;;;;;2.35;1.90;;;;;;;;;;5002781;28;20053;-85
2023/01/22 14:13:45;;;;;;;3.25;2.42;;;;;;;;;;5009550;28;20042;-85
2023/01/22 14:16:15;;;;;;;2.13;1.80;;;;;;;;;;5013437;28;20054;-84
2023/01/22 14:18:45;;;;;;;2.60;2.40;;;;;;;;;;4993420;28;20046;-84
2023/01/22 14:21:12;;;;;;;3.15;2.15;;;;;;;;;;4990207;28;20053;-85
2023/01/22 14:23:41;;;;;;;2.38;2.03;;;;;;;;;;4991491;28;20045;-84
2023/01/22 14:26:08;;;;;;;2.88;2.10;;;;;;;;;;5008632;28;20550;-85
2023/01/22 14:28:36;;;;;;;2.47;2.03;;;;;;;;;;4986620;28;20061;-85
2023/01/22 14:31:04;;;;;;;4.18;2.40;;;;;;;;;;4989972;28;20057;-84
2023/01/22 14:33:33;;;;;;;2.17;1.98;;;;;;;;;;4992233;28;20049;-84
2023/01/22 14:36:03;;;;;;;2.78;2.42;;;;;;;;;;5005561;28;20041;-84
2023/01/22 14:38:30;;;;;;;2.63;2.42;;;;;;;;;;5007717;28;20056;-85
2023/01/22 14:40:57;;;;;;;3.67;2.10;;;;;;;;;;5000315;28;20057;-84
2023/01/22 14:43:24;;;;;;;2.63;2.25;;;;;;;;;;4995787;28;20049;-85
2023/01/22 14:45:54;;;;;;;3.25;2.28;;;;;;;;;;4990768;28;20409;-84
2023/01/22 14:48:22;;;;;;;2.25;1.92;;;;;;;;;;4990682;28;20397;-85
2023/01/22 14:50:50;;;;;;;3.58;3.05;;;;;;;;;;4994296;28;20058;-85
2023/01/22 14:53:19;;;;;;;3.30;2.40;;;;;;;;;;4989799;28;20530;-85
2023/01/22 14:55:46;;;;;;;2.60;2.10;;;;;;;;;;5005266;28;20049;-84
2023/01/22 14:58:16;;;;;;;2.53;2.15;;;;;;;;;;5008872;28;20431;-84
2023/01/22 15:00:43;;;;;;;3.00;2.70;;;;;;;;;;5001431;28;20061;-84
2023/01/22 15:03:12;;;;;;;2.72;2.40;;;;;;;;;;4974036;28;20514;-85
2023/01/22 15:05:39;;;;;;;2.65;2.10;;;;;;;;;;4996668;28;20056;-85
2023/01/22 15:08:10;;;;;;;3.55;3.10;;;;;;;;;;5020861;28;20053;-85
2023/01/22 15:10:38;;;;;;;3.40;2.75;;;;;;;;;;5006943;28;20053;-85
2023/01/22 15:13:09;;;;;;;3.10;2.05;;;;;;;;;;5017160;28;20053;-85
2023/01/22 15:15:37;;;;;;;3.65;2.42;;;;;;;;;;5003279;28;20062;-84
2023/01/22 15:18:04;;;;;;;2.67;2.20;;;;;;;;;;5010779;28;20038;-85